Heyuan, China
Current Conditions -  °F | °C
As of 11:00 PM on Saturday 25 Oct 2014 (Local Time) from ZGGG Reporting Station
Haze Haze  
Wind Chill: 79°   Ceiling: Unl
Heat Index: 81°   Visibility: 2.5mi
Dew Point: 70°   Wind: 4mph
Humidity: 74%   Direction: 70°ENE
Pressure: 30"   Gusts: NA
Location:  23.73°N, 114.68°E
Report Text: ZGGG 251500Z 07002MPS 050V130 4000 BR NSC 26/21 Q1016 NOSIG
Loading
Personal Weather Stations






























Interactive Weather Map
Tropical Storm Tracking
New forecast layout! Learn more

10-Day Weather Forecast

Advertisements
Track Severe Weather on mobile